createdAt,value
2023-07-25T00:01:49.946Z,2.07
2023-07-25T00:04:18.558Z,1.73
2023-07-25T00:06:46.899Z,2.13
2023-07-25T00:09:16.602Z,2.83
2023-07-25T00:11:47.639Z,1.97
2023-07-25T00:14:16.840Z,2.03
2023-07-25T00:16:45.451Z,2.17
2023-07-25T00:19:14.054Z,2.37
2023-07-25T00:21:42.610Z,2.37
2023-07-25T00:24:10.961Z,3.00
2023-07-25T00:26:39.503Z,3.97
2023-07-25T00:29:09.184Z,6.33
2023-07-25T00:31:37.500Z,2.10
2023-07-25T00:34:07.831Z,2.73
2023-07-25T00:36:36.342Z,3.53
2023-07-25T00:39:04.804Z,1.80
2023-07-25T00:41:33.506Z,3.10
2023-07-25T00:44:02.502Z,1.90
2023-07-25T00:46:32.543Z,2.33
2023-07-25T00:49:01.119Z,1.50
2023-07-25T00:51:30.675Z,1.57
2023-07-25T00:53:59.484Z,2.37
2023-07-25T00:56:29.096Z,2.30
2023-07-25T00:58:57.847Z,2.37
2023-07-25T01:01:29.837Z,1.77
2023-07-25T01:04:00.353Z,2.40
2023-07-25T01:06:31.930Z,1.57
2023-07-25T01:09:00.359Z,2.27
2023-07-25T01:11:29.310Z,2.47
2023-07-25T01:13:57.686Z,1.70
2023-07-25T01:16:28.639Z,1.60
2023-07-25T01:18:59.371Z,2.20
2023-07-25T01:21:28.001Z,1.80
2023-07-25T01:24:03.403Z,2.00
2023-07-25T01:26:31.746Z,1.63
2023-07-25T01:29:00.433Z,1.73
2023-07-25T01:31:30.012Z,1.90
2023-07-25T01:33:58.730Z,1.77
2023-07-25T01:36:27.096Z,2.23
2023-07-25T01:38:58.602Z,1.80
2023-07-25T01:41:28.676Z,1.97
2023-07-25T01:43:57.585Z,4.23
2023-07-25T01:46:26.645Z,1.60
2023-07-25T01:48:55.215Z,1.60
2023-07-25T01:51:23.556Z,1.90
2023-07-25T01:53:52.745Z,3.23
2023-07-25T01:56:21.311Z,2.50
2023-07-25T01:58:52.715Z,2.10
2023-07-25T02:01:28.197Z,2.30
2023-07-25T02:03:57.079Z,1.70
2023-07-25T02:06:25.686Z,2.20
2023-07-25T02:08:54.199Z,2.23
2023-07-25T02:11:23.159Z,3.00
2023-07-25T02:13:56.890Z,2.10
2023-07-25T02:16:26.234Z,2.67
2023-07-25T02:18:56.212Z,2.03
2023-07-25T02:21:24.629Z,2.30
2023-07-25T02:23:53.766Z,2.90
2023-07-25T02:26:22.144Z,2.77
2023-07-25T02:28:50.785Z,3.23
2023-07-25T02:31:20.474Z,3.33
2023-07-25T02:33:49.324Z,4.23
2023-07-25T02:36:17.753Z,2.33
2023-07-25T02:38:47.780Z,4.17
2023-07-25T02:41:16.415Z,2.63
2023-07-25T02:43:44.694Z,5.40
2023-07-25T02:46:12.801Z,3.83
2023-07-25T02:48:44.854Z,3.83
2023-07-25T02:51:13.265Z,3.03
2023-07-25T02:53:41.845Z,3.13
2023-07-25T02:56:12.310Z,3.47
2023-07-25T02:58:42.020Z,3.63
2023-07-25T03:01:10.558Z,5.63
2023-07-25T03:03:38.935Z,4.57
2023-07-25T03:06:08.502Z,4.53
2023-07-25T03:08:37.001Z,4.13
2023-07-25T03:11:05.398Z,3.63
2023-07-25T03:13:33.932Z,4.43
2023-07-25T03:16:02.889Z,4.07
2023-07-25T03:18:31.369Z,4.30
2023-07-25T03:21:00.129Z,5.20
2023-07-25T03:23:30.978Z,6.00
2023-07-25T03:25:59.861Z,4.13
2023-07-25T03:28:28.399Z,5.47
2023-07-25T03:30:57.530Z,3.97
2023-07-25T03:33:26.100Z,4.60
2023-07-25T03:35:54.678Z,5.17
2023-07-25T03:38:23.553Z,6.07
2023-07-25T03:40:53.911Z,4.43
2023-07-25T03:43:23.214Z,6.30
2023-07-25T03:45:52.854Z,11.23
2023-07-25T03:48:21.784Z,8.13
2023-07-25T03:50:52.712Z,8.67
2023-07-25T03:53:21.602Z,9.33
2023-07-25T03:55:50.193Z,9.67
2023-07-25T03:58:20.098Z,12.83
2023-07-25T04:00:48.614Z,10.30
2023-07-25T04:03:17.726Z,9.33
2023-07-25T04:05:46.479Z,12.60
2023-07-25T04:08:17.977Z,11.07
2023-07-25T04:10:47.520Z,11.50
2023-07-25T04:13:16.289Z,11.53
2023-07-25T04:15:46.382Z,13.90
2023-07-25T04:18:17.140Z,10.70
2023-07-25T04:20:46.524Z,13.53
2023-07-25T04:23:16.831Z,11.20
2023-07-25T04:25:45.310Z,12.07
2023-07-25T04:28:13.910Z,12.53
2023-07-25T04:30:43.364Z,11.33
2023-07-25T04:33:17.236Z,10.77
2023-07-25T04:35:47.561Z,12.27
2023-07-25T04:38:19.158Z,16.80
2023-07-25T04:40:48.736Z,15.17
2023-07-25T04:43:19.229Z,14.00
2023-07-25T04:45:54.249Z,13.83
2023-07-25T04:48:24.894Z,13.87
2023-07-25T04:50:53.067Z,15.47
2023-07-25T04:53:21.565Z,16.77
2023-07-25T04:55:50.150Z,13.83
2023-07-25T04:58:18.979Z,12.80
2023-07-25T05:00:47.498Z,15.30
2023-07-25T05:03:16.482Z,16.83
2023-07-25T05:05:46.296Z,17.80
2023-07-25T05:08:15.497Z,17.30
2023-07-25T05:10:44.129Z,16.63
2023-07-25T05:13:15.430Z,18.10
2023-07-25T05:15:44.355Z,17.20
2023-07-25T05:18:12.951Z,15.37
2023-07-25T05:20:43.373Z,17.50
2023-07-25T05:23:13.866Z,12.93
2023-07-25T05:25:42.698Z,16.03
2023-07-25T05:28:11.440Z,11.87
2023-07-25T05:30:44.226Z,11.73
2023-07-25T05:33:12.687Z,9.93
2023-07-25T05:35:41.268Z,8.13
2023-07-25T05:38:10.027Z,9.53
2023-07-25T05:40:40.150Z,9.30
2023-07-25T05:43:17.858Z,10.30
2023-07-25T05:45:49.019Z,10.37
2023-07-25T05:48:20.305Z,11.00
2023-07-25T05:50:53.901Z,9.10
2023-07-25T05:53:22.735Z,9.07
2023-07-25T05:55:53.235Z,7.20
2023-07-25T05:58:22.184Z,8.60
2023-07-25T06:00:52.115Z,7.03
2023-07-25T06:03:21.484Z,7.47
2023-07-25T06:05:49.913Z,10.13
2023-07-25T06:08:21.238Z,8.30
2023-07-25T06:10:52.508Z,8.93
2023-07-25T06:13:23.124Z,6.70
2023-07-25T06:15:51.993Z,7.57
2023-07-25T06:18:22.908Z,7.50
2023-07-25T06:20:51.250Z,7.20
2023-07-25T06:23:21.288Z,7.80
2023-07-25T06:25:50.807Z,8.23
2023-07-25T06:28:31.729Z,8.60
2023-07-25T06:31:01.868Z,8.53
2023-07-25T06:33:36.126Z,9.73
2023-07-25T06:36:05.641Z,9.90
2023-07-25T06:38:34.315Z,10.97
2023-07-25T06:41:03.938Z,11.17
2023-07-25T06:43:33.704Z,11.27
2023-07-25T06:46:03.314Z,11.43
2023-07-25T06:48:32.236Z,12.57
2023-07-25T06:51:01.918Z,13.20
2023-07-25T06:53:32.273Z,12.43
2023-07-25T06:56:01.462Z,12.13
2023-07-25T06:58:30.097Z,12.83
2023-07-25T07:01:00.244Z,11.37
2023-07-25T07:03:32.003Z,11.97
2023-07-25T07:06:02.520Z,12.50
2023-07-25T07:11:09.338Z,11.37
2023-07-25T07:13:39.630Z,10.53
2023-07-25T07:16:12.100Z,10.87
2023-07-25T07:18:41.304Z,12.53
2023-07-25T07:21:09.831Z,13.70
2023-07-25T07:23:38.134Z,12.53
2023-07-25T07:26:06.535Z,13.63
2023-07-25T07:28:34.963Z,14.93
2023-07-25T07:31:03.250Z,14.80
2023-07-25T07:33:33.660Z,13.83
2023-07-25T07:36:02.199Z,16.20
2023-07-25T07:38:30.673Z,15.57
2023-07-25T07:40:59.206Z,13.87
2023-07-25T07:43:27.546Z,18.17
2023-07-25T07:45:55.800Z,15.47
2023-07-25T07:48:24.183Z,12.43
2023-07-25T07:50:53.536Z,12.07
2023-07-25T07:53:21.583Z,10.30
2023-07-25T07:55:49.653Z,14.13
2023-07-25T07:58:18.232Z,10.23
2023-07-25T08:00:46.343Z,11.90
2023-07-25T08:03:15.569Z,10.43
2023-07-25T08:05:44.272Z,14.60
2023-07-25T08:08:15.433Z,12.13
2023-07-25T08:10:44.666Z,11.67
2023-07-25T08:13:12.987Z,10.20
2023-07-25T08:15:41.208Z,10.53
2023-07-25T08:18:09.516Z,10.63
2023-07-25T08:20:39.209Z,9.67
2023-07-25T08:23:07.675Z,12.07
2023-07-25T08:25:39.976Z,9.47
2023-07-25T08:28:08.613Z,12.13
2023-07-25T08:30:39.723Z,10.37
2023-07-25T08:33:08.031Z,10.47
2023-07-25T08:35:36.184Z,10.17
2023-07-25T08:38:04.319Z,10.20
2023-07-25T08:40:32.544Z,8.33
2023-07-25T08:43:09.110Z,8.80
2023-07-25T08:45:38.395Z,9.40
2023-07-25T08:48:10.559Z,8.63
2023-07-25T08:50:40.243Z,8.80
2023-07-25T08:53:13.662Z,8.23
2023-07-25T08:55:42.346Z,8.30
2023-07-25T08:58:12.592Z,9.10
2023-07-25T09:00:41.733Z,8.27
2023-07-25T09:03:10.609Z,7.77
2023-07-25T09:05:39.394Z,6.60
2023-07-25T09:08:07.599Z,9.97
2023-07-25T09:10:36.738Z,6.77
2023-07-25T09:13:05.049Z,7.07
2023-07-25T09:15:34.583Z,8.83
2023-07-25T09:18:02.951Z,6.80
2023-07-25T09:20:31.264Z,6.50
2023-07-25T09:23:03.809Z,6.40
2023-07-25T09:25:32.216Z,7.30
2023-07-25T09:28:01.112Z,5.83
2023-07-25T09:30:30.410Z,5.03
2023-07-25T09:33:00.099Z,4.90
2023-07-25T09:35:28.205Z,4.80
2023-07-25T09:37:57.610Z,5.03
2023-07-25T09:40:30.578Z,3.30
2023-07-25T09:42:58.877Z,3.40
2023-07-25T09:45:26.991Z,2.97
2023-07-25T09:47:55.490Z,3.63
2023-07-25T09:50:28.493Z,3.27
2023-07-25T09:52:56.935Z,3.67
2023-07-25T09:55:25.636Z,3.97
2023-07-25T09:57:54.640Z,2.20
2023-07-25T10:00:23.510Z,2.87
2023-07-25T10:02:55.531Z,2.40
2023-07-25T10:05:24.332Z,2.33
2023-07-25T10:07:57.957Z,2.20
2023-07-25T10:10:27.595Z,6.30
2023-07-25T10:12:59.305Z,4.10
2023-07-25T10:15:28.201Z,2.30
2023-07-25T10:18:04.652Z,2.43
2023-07-25T10:20:33.080Z,2.07
2023-07-25T10:23:13.134Z,2.20
2023-07-25T10:25:41.720Z,2.70
2023-07-25T10:28:10.491Z,2.53
2023-07-25T10:30:45.227Z,2.70
2023-07-25T10:33:15.257Z,2.00
2023-07-25T10:35:54.149Z,4.37
2023-07-25T10:38:31.782Z,4.93
2023-07-25T10:41:02.630Z,4.03
2023-07-25T10:43:54.010Z,2.87
2023-07-25T10:46:23.992Z,2.27
2023-07-25T10:48:53.653Z,2.50
2023-07-25T10:51:23.073Z,2.57
2023-07-25T10:54:13.882Z,2.80
2023-07-25T10:57:17.406Z,2.17
2023-07-25T11:00:00.012Z,2.23
2023-07-25T11:02:33.311Z,2.50
2023-07-25T11:05:24.548Z,2.17
2023-07-25T11:07:54.886Z,2.43
2023-07-25T11:10:26.412Z,2.40
2023-07-25T11:12:56.485Z,1.63
2023-07-25T11:15:40.824Z,1.60
2023-07-25T11:18:13.774Z,1.97
2023-07-25T11:20:42.311Z,2.17
2023-07-25T11:23:10.970Z,1.67
2023-07-25T11:25:40.608Z,3.63
2023-07-25T11:28:08.749Z,1.50
2023-07-25T11:30:45.392Z,1.63
2023-07-25T11:33:13.859Z,1.70
2023-07-25T11:35:42.458Z,2.40
2023-07-25T11:38:12.956Z,3.07
2023-07-25T11:40:43.959Z,1.80
2023-07-25T11:43:16.446Z,1.80
2023-07-25T11:45:46.672Z,2.10
2023-07-25T11:48:17.424Z,1.53
2023-07-25T11:50:50.039Z,1.70
2023-07-25T11:53:20.142Z,2.10
2023-07-25T11:55:53.758Z,2.50
2023-07-25T11:58:23.180Z,1.80
2023-07-25T12:00:55.975Z,2.10
2023-07-25T12:03:25.720Z,2.20
2023-07-25T12:05:56.278Z,2.33
2023-07-25T12:08:34.756Z,2.27
2023-07-25T12:11:09.182Z,1.70
2023-07-25T12:13:45.703Z,2.03
2023-07-25T12:16:27.104Z,1.80
2023-07-25T12:18:57.801Z,1.70
2023-07-25T12:21:28.925Z,3.27
2023-07-25T12:24:02.804Z,2.03
2023-07-25T12:26:45.893Z,2.80
2023-07-25T12:29:17.699Z,2.10
2023-07-25T12:31:46.329Z,2.30
2023-07-25T12:34:20.300Z,2.47
2023-07-25T12:36:49.104Z,2.43
2023-07-25T12:39:18.184Z,2.23
2023-07-25T12:41:48.143Z,4.37
2023-07-25T12:44:16.646Z,2.10
2023-07-25T12:46:45.181Z,2.47
2023-07-25T12:49:14.539Z,2.07
2023-07-25T12:51:42.954Z,1.90
2023-07-25T12:54:11.214Z,2.07
2023-07-25T12:56:42.360Z,2.30
2023-07-25T12:59:11.941Z,2.40
2023-07-25T13:01:40.354Z,2.43
2023-07-25T13:04:08.755Z,3.67
2023-07-25T13:06:37.174Z,2.63
2023-07-25T13:09:05.571Z,3.10
2023-07-25T13:11:34.121Z,3.37
2023-07-25T13:14:04.728Z,2.63
2023-07-25T13:16:36.108Z,2.83
2023-07-25T13:19:04.973Z,3.23
2023-07-25T13:21:33.413Z,5.37
2023-07-25T13:24:04.589Z,3.90
2023-07-25T13:26:35.428Z,5.07
2023-07-25T13:29:06.263Z,6.13
2023-07-25T13:31:35.841Z,4.93
2023-07-25T13:34:04.545Z,6.73
2023-07-25T13:36:32.746Z,3.40
2023-07-25T13:39:02.154Z,3.83
2023-07-25T13:41:30.392Z,4.03
2023-07-25T13:43:59.191Z,3.27
2023-07-25T13:46:27.401Z,4.37
2023-07-25T13:48:57.263Z,2.63
2023-07-25T13:51:25.803Z,2.67
2023-07-25T13:53:54.753Z,3.63
2023-07-25T13:56:23.031Z,5.13
2023-07-25T13:58:51.197Z,3.30
2023-07-25T14:01:19.444Z,4.10
2023-07-25T14:03:47.923Z,5.60
2023-07-25T14:06:18.390Z,4.33
2023-07-25T14:08:47.244Z,4.50
2023-07-25T14:11:17.679Z,3.57
2023-07-25T14:13:46.143Z,3.43
2023-07-25T14:16:14.752Z,5.30
2023-07-25T14:18:43.009Z,4.23
2023-07-25T14:21:11.405Z,3.73
2023-07-25T14:23:41.442Z,4.80
2023-07-25T14:26:12.300Z,5.90
2023-07-25T14:28:43.701Z,4.23
2023-07-25T14:31:11.832Z,5.77
2023-07-25T14:33:40.402Z,2.47
2023-07-25T14:36:09.806Z,3.73
2023-07-25T14:38:39.728Z,6.63
2023-07-25T14:41:09.492Z,6.07
2023-07-25T14:43:40.275Z,2.83
2023-07-25T14:46:08.646Z,2.80
2023-07-25T14:48:37.499Z,3.67
2023-07-25T14:51:05.988Z,2.77
2023-07-25T14:53:37.377Z,2.30
2023-07-25T14:56:09.921Z,5.53
2023-07-25T14:58:38.954Z,4.83
2023-07-25T15:01:08.610Z,2.00
2023-07-25T15:03:39.443Z,3.17
2023-07-25T15:06:09.399Z,5.30
2023-07-25T15:08:39.876Z,2.73
2023-07-25T15:11:09.767Z,3.87
2023-07-25T15:13:38.275Z,4.13
2023-07-25T15:16:08.577Z,3.53
2023-07-25T15:18:37.199Z,6.47
2023-07-25T15:21:06.172Z,4.03
2023-07-25T15:23:34.676Z,4.00
2023-07-25T15:26:03.052Z,5.63
2023-07-25T15:28:32.849Z,3.10
2023-07-25T15:31:01.046Z,4.63
2023-07-25T15:33:29.430Z,3.37
2023-07-25T15:35:58.828Z,4.17
2023-07-25T15:38:27.299Z,5.63
2023-07-25T15:40:55.760Z,2.70
2023-07-25T15:43:24.046Z,4.07
2023-07-25T15:45:56.415Z,4.83
2023-07-25T15:48:25.020Z,2.30
2023-07-25T15:50:53.567Z,4.80
2023-07-25T15:53:21.966Z,7.27
2023-07-25T15:55:50.338Z,7.33
2023-07-25T15:58:18.880Z,5.50
2023-07-25T16:00:47.918Z,3.63
2023-07-25T16:03:18.351Z,2.60
2023-07-25T16:05:46.945Z,4.83
2023-07-25T16:08:15.645Z,2.60
2023-07-25T16:10:46.716Z,4.43
2023-07-25T16:13:17.065Z,5.47
2023-07-25T16:15:47.699Z,6.23
2023-07-25T16:18:26.360Z,4.67
2023-07-25T16:20:54.608Z,2.60
2023-07-25T16:23:22.687Z,4.57
2023-07-25T16:25:52.457Z,4.37
2023-07-25T16:28:20.771Z,3.13
2023-07-25T16:30:49.102Z,2.70
2023-07-25T16:33:18.859Z,3.90
2023-07-25T16:35:46.951Z,4.53
2023-07-25T16:38:15.097Z,4.57
2023-07-25T16:40:44.516Z,6.40
2023-07-25T16:43:14.172Z,5.03
2023-07-25T16:45:42.636Z,4.27
2023-07-25T16:48:10.751Z,5.00
2023-07-25T16:50:40.466Z,4.93
2023-07-25T16:53:08.779Z,3.30
2023-07-25T16:55:37.131Z,5.00
2023-07-25T16:58:05.712Z,3.57
2023-07-25T17:00:34.438Z,4.83
2023-07-25T17:03:02.979Z,5.17
2023-07-25T17:05:31.151Z,3.27
2023-07-25T17:08:01.338Z,5.80
2023-07-25T17:10:32.738Z,5.27
2023-07-25T17:13:01.171Z,3.83
2023-07-25T17:15:29.123Z,4.33
2023-07-25T17:17:57.530Z,8.70
2023-07-25T17:20:27.351Z,6.13
2023-07-25T17:22:58.013Z,5.33
2023-07-25T17:25:27.991Z,5.73
2023-07-25T17:27:56.596Z,5.17
2023-07-25T17:30:24.844Z,7.07
2023-07-25T17:32:54.980Z,3.53
2023-07-25T17:35:35.475Z,5.07
2023-07-25T17:38:09.300Z,5.60
2023-07-25T17:40:39.538Z,4.23
2023-07-25T17:43:08.115Z,5.47
2023-07-25T17:45:36.458Z,4.33
2023-07-25T17:48:04.988Z,5.40
2023-07-25T17:50:33.488Z,5.13
2023-07-25T17:53:02.294Z,4.53
2023-07-25T17:55:30.522Z,3.87
2023-07-25T17:58:03.522Z,4.90
2023-07-25T18:00:32.542Z,4.13
2023-07-25T18:03:01.316Z,3.53
2023-07-25T18:05:32.291Z,4.40
2023-07-25T18:08:00.668Z,8.33
2023-07-25T18:10:30.310Z,3.33
2023-07-25T18:13:00.263Z,4.37
2023-07-25T18:15:30.518Z,2.50
2023-07-25T18:17:59.780Z,4.73
2023-07-25T18:20:29.415Z,5.30
2023-07-25T18:23:05.922Z,4.67
2023-07-25T18:25:35.188Z,6.10
2023-07-25T18:28:17.019Z,4.07
2023-07-25T18:30:46.849Z,6.47
2023-07-25T18:33:20.532Z,6.97
2023-07-25T18:35:49.456Z,3.60
2023-07-25T18:38:30.668Z,3.53
2023-07-25T18:40:59.272Z,4.50
2023-07-25T18:43:39.224Z,3.53
2023-07-25T18:46:07.573Z,3.47
2023-07-25T18:51:35.551Z,3.37
2023-07-25T18:54:04.501Z,2.93
2023-07-25T18:56:51.331Z,3.07
2023-07-25T18:59:22.917Z,6.00
2023-07-25T19:01:52.503Z,5.20
2023-07-25T19:04:20.809Z,5.53
2023-07-25T19:06:51.375Z,3.23
2023-07-25T19:09:21.532Z,4.97
2023-07-25T19:11:52.176Z,4.37
2023-07-25T19:14:22.534Z,3.70
2023-07-25T19:16:50.985Z,4.43
2023-07-25T19:19:19.250Z,8.20
2023-07-25T19:21:53.539Z,3.23
2023-07-25T19:24:22.554Z,3.03
2023-07-25T19:27:02.288Z,6.70
2023-07-25T19:29:32.380Z,3.23
2023-07-25T19:32:00.679Z,4.40
2023-07-25T19:34:40.632Z,3.53
2023-07-25T19:37:22.877Z,4.07
2023-07-25T19:39:55.553Z,4.37
2023-07-25T19:42:24.033Z,4.03
2023-07-25T19:44:53.854Z,4.13
2023-07-25T19:47:22.166Z,3.57
2023-07-25T19:49:54.278Z,4.37
2023-07-25T19:52:22.703Z,5.80
2023-07-25T19:54:52.454Z,4.83
2023-07-25T19:57:22.255Z,3.67
2023-07-25T19:59:51.219Z,4.50
2023-07-25T20:02:23.743Z,4.97
2023-07-25T20:04:53.221Z,5.67
2023-07-25T20:07:24.065Z,4.97
2023-07-25T20:10:27.201Z,5.03
2023-07-25T20:12:55.666Z,5.70
2023-07-25T20:15:36.518Z,6.87
2023-07-25T20:18:06.506Z,3.30
2023-07-25T20:20:35.061Z,3.37
2023-07-25T20:23:03.540Z,4.00
2023-07-25T20:25:35.518Z,2.27
2023-07-25T20:28:03.673Z,3.63
2023-07-25T20:30:32.184Z,5.90
2023-07-25T20:33:00.417Z,4.57
2023-07-25T20:35:34.665Z,5.33
2023-07-25T20:38:04.096Z,5.43
2023-07-25T20:40:32.526Z,3.40
2023-07-25T20:43:01.708Z,4.10
2023-07-25T20:45:31.220Z,4.73
2023-07-25T20:47:59.584Z,3.67
2023-07-25T20:50:31.431Z,5.30
2023-07-25T20:53:03.382Z,2.87
2023-07-25T20:55:31.525Z,5.17
2023-07-25T20:57:59.760Z,3.97
2023-07-25T21:00:28.178Z,4.20
2023-07-25T21:02:56.597Z,3.80
2023-07-25T21:05:24.960Z,5.83
2023-07-25T21:07:54.501Z,5.63
2023-07-25T21:10:23.068Z,3.47
2023-07-25T21:12:51.519Z,5.20
2023-07-25T21:15:19.780Z,5.27
2023-07-25T21:17:55.627Z,4.33
2023-07-25T21:20:31.756Z,3.63
2023-07-25T21:23:01.280Z,4.30
2023-07-25T21:25:29.686Z,3.50
2023-07-25T21:27:58.102Z,3.33
2023-07-25T21:30:28.872Z,3.00
2023-07-25T21:32:58.935Z,4.03
2023-07-25T21:35:27.633Z,4.63
2023-07-25T21:37:56.598Z,2.97
2023-07-25T21:40:26.822Z,3.77
2023-07-25T21:42:55.316Z,4.77
2023-07-25T21:45:24.104Z,4.47
2023-07-25T21:47:52.693Z,4.63
2023-07-25T21:50:21.116Z,3.53
2023-07-25T21:52:49.650Z,5.13
2023-07-25T21:55:18.031Z,3.80
2023-07-25T21:57:48.299Z,4.37
2023-07-25T22:00:16.847Z,5.90
2023-07-25T22:02:45.343Z,5.53
2023-07-25T22:05:17.825Z,4.07
2023-07-25T22:07:48.949Z,5.73
2023-07-25T22:10:20.217Z,4.80
2023-07-25T22:12:52.736Z,4.67
2023-07-25T22:15:21.646Z,5.03
2023-07-25T22:17:50.059Z,5.47
2023-07-25T22:20:19.661Z,4.10
2023-07-25T22:22:48.094Z,3.77
2023-07-25T22:25:16.497Z,6.07
2023-07-25T22:27:45.064Z,3.17
2023-07-25T22:30:15.996Z,3.90
2023-07-25T22:32:44.703Z,2.90
2023-07-25T22:35:13.427Z,4.10
2023-07-25T22:37:41.685Z,3.63
2023-07-25T22:40:10.727Z,5.07
2023-07-25T22:42:39.006Z,3.57
2023-07-25T22:45:08.206Z,2.80
2023-07-25T22:47:42.823Z,3.40
2023-07-25T22:50:18.280Z,3.93
2023-07-25T22:52:48.119Z,4.60
2023-07-25T22:55:19.937Z,3.83
2023-07-25T22:57:48.181Z,3.63
2023-07-25T23:00:17.867Z,2.20
2023-07-25T23:02:48.316Z,4.70
2023-07-25T23:05:17.513Z,3.10
2023-07-25T23:07:45.905Z,2.50
2023-07-25T23:10:14.465Z,3.27
2023-07-25T23:12:44.211Z,4.50
2023-07-25T23:15:14.575Z,6.53
2023-07-25T23:17:45.001Z,3.70
2023-07-25T23:20:15.923Z,4.77
2023-07-25T23:22:45.358Z,3.37
2023-07-25T23:25:13.989Z,4.03
2023-07-25T23:27:46.340Z,3.30
2023-07-25T23:30:14.994Z,3.87
2023-07-25T23:32:44.264Z,2.17
2023-07-25T23:35:12.752Z,3.67
2023-07-25T23:37:42.832Z,4.03
2023-07-25T23:40:13.206Z,3.73
2023-07-25T23:42:41.994Z,4.77
2023-07-25T23:45:11.484Z,5.70
2023-07-25T23:47:39.832Z,5.80
2023-07-25T23:50:09.009Z,4.93
2023-07-25T23:52:37.790Z,3.33
2023-07-25T23:55:10.425Z,2.70
2023-07-25T23:57:39.701Z,3.73
